Terminal Aerodrome Forecast
Issued by NWS

Home | Current Version | Previous Version | Text Only | Print | Product List | Glossary Off
Versions: 1 2 3 4 5 6 7 8 9 10 11 12 13 14 15

681
FTUS43 KBIS 232326
TAFJMS
TAF
KJMS 232326Z 2400/2424 15012KT P6SM VCTS SCT025 BKN070CB
     FM240400 15010KT P6SM SCT050 BKN150
     FM241100 16008KT P6SM VCTS SCT050CB BKN200
     FM241500 19011KT P6SM FEW060 SCT250
     FM242200 22013G21KT P6SM SCT130=

USA.gov is the U.S. government's official web portal to all federal, state and local government web resources and services.